sensor_id;sensor_type;location;lat;lon;timestamp;pressure;altitude;pressure_sealevel;temperature;humidity
25084;BME280;13075;55.682;37.564;2022-08-03T00:01:32;99587.28;;;21.34;100.00
25084;BME280;13075;55.682;37.564;2022-08-03T00:03:58;99591.94;;;21.39;100.00
25084;BME280;13075;55.682;37.564;2022-08-03T00:06:24;99584.31;;;21.41;100.00
25084;BME280;13075;55.682;37.564;2022-08-03T00:08:50;99597.09;;;21.40;100.00
25084;BME280;13075;55.682;37.564;2022-08-03T00:11:16;99599.28;;;21.43;100.00
25084;BME280;13075;55.682;37.564;2022-08-03T00:13:42;99596.03;;;21.46;100.00
25084;BME280;13075;55.682;37.564;2022-08-03T00:16:08;99600.91;;;21.44;100.00
25084;BME280;13075;55.682;37.564;2022-08-03T00:18:35;99596.56;;;21.43;100.00
25084;BME280;13075;55.682;37.564;2022-08-03T00:21:02;99591.66;;;21.40;100.00
25084;BME280;13075;55.682;37.564;2022-08-03T00:23:27;99595.19;;;21.36;100.00
25084;BME280;13075;55.682;37.564;2022-08-03T00:25:53;99591.09;;;21.33;100.00
25084;BME280;13075;55.682;37.564;2022-08-03T00:28:19;99596.81;;;21.32;100.00
25084;BME280;13075;55.682;37.564;2022-08-03T00:30:44;99588.91;;;21.30;100.00
25084;BME280;13075;55.682;37.564;2022-08-03T00:33:10;99587.81;;;21.26;100.00
25084;BME280;13075;55.682;37.564;2022-08-03T00:35:36;99587.25;;;21.24;100.00
25084;BME280;13075;55.682;37.564;2022-08-03T00:38:01;99585.63;;;21.18;100.00
25084;BME280;13075;55.682;37.564;2022-08-03T00:40:27;99595.69;;;21.18;100.00
25084;BME280;13075;55.682;37.564;2022-08-03T00:42:59;99596.22;;;21.15;100.00
25084;BME280;13075;55.682;37.564;2022-08-03T00:45:31;99585.31;;;21.09;100.00
25084;BME280;13075;55.682;37.564;2022-08-03T00:47:58;99591.84;;;21.08;100.00
25084;BME280;13075;55.682;37.564;2022-08-03T00:50:25;99580.97;;;21.08;100.00
25084;BME280;13075;55.682;37.564;2022-08-03T00:52:54;99587.16;;;21.04;100.00
25084;BME280;13075;55.682;37.564;2022-08-03T00:55:20;99589.63;;;21.00;100.00
25084;BME280;13075;55.682;37.564;2022-08-03T00:57:46;99588.50;;;21.01;100.00
25084;BME280;13075;55.682;37.564;2022-08-03T01:02:55;99583.88;;;20.97;100.00
25084;BME280;13075;55.682;37.564;2022-08-03T01:05:21;99578.41;;;20.92;100.00
25084;BME280;13075;55.682;37.564;2022-08-03T01:08:07;99577.34;;;20.88;100.00
25084;BME280;13075;55.682;37.564;2022-08-03T01:10:44;99584.66;;;20.87;100.00
25084;BME280;13075;55.682;37.564;2022-08-03T01:16:25;99586.53;;;20.82;100.00
25084;BME280;13075;55.682;37.564;2022-08-03T01:24:26;99577.53;;;20.76;100.00
25084;BME280;13075;55.682;37.564;2022-08-03T01:27:06;99585.66;;;20.71;100.00
25084;BME280;13075;55.682;37.564;2022-08-03T01:32:15;99577.81;;;20.75;100.00
25084;BME280;13075;55.682;37.564;2022-08-03T01:34:56;99578.06;;;20.73;100.00
25084;BME280;13075;55.682;37.564;2022-08-03T01:37:31;99576.16;;;20.74;100.00
25084;BME280;13075;55.682;37.564;2022-08-03T01:40:00;99584.31;;;20.74;100.00
25084;BME280;13075;55.682;37.564;2022-08-03T01:42:29;99578.06;;;20.73;100.00
25084;BME280;13075;55.682;37.564;2022-08-03T01:44:58;99588.41;;;20.71;100.00
25084;BME280;13075;55.682;37.564;2022-08-03T01:47:26;99590.59;;;20.74;100.00
25084;BME280;13075;55.682;37.564;2022-08-03T01:49:54;99587.59;;;20.76;100.00
25084;BME280;13075;55.682;37.564;2022-08-03T01:52:23;99591.97;;;20.77;100.00
25084;BME280;13075;55.682;37.564;2022-08-03T01:54:51;99578.09;;;20.78;100.00
25084;BME280;13075;55.682;37.564;2022-08-03T01:57:19;99584.03;;;20.75;100.00
25084;BME280;13075;55.682;37.564;2022-08-03T01:59:46;99596.06;;;20.79;100.00
25084;BME280;13075;55.682;37.564;2022-08-03T02:02:15;99593.88;;;20.81;100.00
25084;BME280;13075;55.682;37.564;2022-08-03T02:04:42;99597.97;;;20.84;100.00
25084;BME280;13075;55.682;37.564;2022-08-03T02:07:09;99599.63;;;20.85;100.00
25084;BME280;13075;55.682;37.564;2022-08-03T02:09:39;99604.22;;;20.84;100.00
25084;BME280;13075;55.682;37.564;2022-08-03T02:12:10;99598.50;;;20.86;100.00
25084;BME280;13075;55.682;37.564;2022-08-03T02:14:38;99607.25;;;20.88;100.00
25084;BME280;13075;55.682;37.564;2022-08-03T02:17:06;99604.78;;;20.91;100.00
25084;BME280;13075;55.682;37.564;2022-08-03T02:19:33;99599.91;;;20.93;100.00
25084;BME280;13075;55.682;37.564;2022-08-03T02:21:59;99601.28;;;20.96;100.00
25084;BME280;13075;55.682;37.564;2022-08-03T02:24:27;99599.66;;;21.00;100.00
25084;BME280;13075;55.682;37.564;2022-08-03T02:26:54;99597.50;;;21.02;100.00
25084;BME280;13075;55.682;37.564;2022-08-03T02:29:32;99604.59;;;21.03;100.00
25084;BME280;13075;55.682;37.564;2022-08-03T02:32:01;99604.06;;;21.06;100.00
25084;BME280;13075;55.682;37.564;2022-08-03T02:34:30;99599.72;;;21.10;100.00
25084;BME280;13075;55.682;37.564;2022-08-03T02:36:59;99607.06;;;21.09;100.00
25084;BME280;13075;55.682;37.564;2022-08-03T02:39:27;99603.00;;;21.12;100.00
25084;BME280;13075;55.682;37.564;2022-08-03T02:41:56;99601.13;;;21.18;100.00
25084;BME280;13075;55.682;37.564;2022-08-03T02:44:28;99606.00;;;21.16;100.00
25084;BME280;13075;55.682;37.564;2022-08-03T02:47:02;99606.56;;;21.23;100.00
25084;BME280;13075;55.682;37.564;2022-08-03T02:49:30;99607.94;;;21.25;100.00
25084;BME280;13075;55.682;37.564;2022-08-03T02:51:57;99609.59;;;21.31;100.00
25084;BME280;13075;55.682;37.564;2022-08-03T02:54:25;99609.06;;;21.34;100.00
25084;BME280;13075;55.682;37.564;2022-08-03T02:56:53;99611.81;;;21.39;100.00
25084;BME280;13075;55.682;37.564;2022-08-03T02:59:20;99611.25;;;21.42;100.00
25084;BME280;13075;55.682;37.564;2022-08-03T03:01:48;99618.88;;;21.50;100.00
25084;BME280;13075;55.682;37.564;2022-08-03T03:04:15;99616.16;;;21.55;100.00
25084;BME280;13075;55.682;37.564;2022-08-03T03:06:41;99615.34;;;21.50;100.00
25084;BME280;13075;55.682;37.564;2022-08-03T03:09:07;99610.47;;;21.57;100.00
25084;BME280;13075;55.682;37.564;2022-08-03T03:11:35;99607.22;;;21.60;100.00
25084;BME280;13075;55.682;37.564;2022-08-03T03:14:02;99622.22;;;21.72;100.00
25084;BME280;13075;55.682;37.564;2022-08-03T03:16:28;99626.28;;;21.80;100.00
25084;BME280;13075;55.682;37.564;2022-08-03T03:18:56;99625.47;;;21.85;100.00
25084;BME280;13075;55.682;37.564;2022-08-03T03:21:23;99615.16;;;21.92;100.00
25084;BME280;13075;55.682;37.564;2022-08-03T03:23:49;99604.00;;;21.98;100.00
25084;BME280;13075;55.682;37.564;2022-08-03T03:26:17;99617.06;;;22.16;100.00
25084;BME280;13075;55.682;37.564;2022-08-03T03:28:43;99605.31;;;22.41;100.00
25084;BME280;13075;55.682;37.564;2022-08-03T03:31:10;99603.97;;;23.72;100.00
25084;BME280;13075;55.682;37.564;2022-08-03T03:33:36;99615.34;;;23.35;100.00
25084;BME280;13075;55.682;37.564;2022-08-03T03:36:06;99610.00;;;23.15;100.00
25084;BME280;13075;55.682;37.564;2022-08-03T03:38:32;99612.75;;;23.15;100.00
25084;BME280;13075;55.682;37.564;2022-08-03T03:40:58;99611.59;;;24.08;100.00
25084;BME280;13075;55.682;37.564;2022-08-03T03:43:24;99611.25;;;24.49;100.00
25084;BME280;13075;55.682;37.564;2022-08-03T03:45:50;99614.69;;;23.97;100.00
25084;BME280;13075;55.682;37.564;2022-08-03T03:48:18;99614.94;;;23.67;100.00
25084;BME280;13075;55.682;37.564;2022-08-03T03:50:45;99620.81;;;23.40;100.00
25084;BME280;13075;55.682;37.564;2022-08-03T03:53:12;99612.97;;;23.18;100.00
25084;BME280;13075;55.682;37.564;2022-08-03T03:55:38;99623.94;;;23.08;100.00
25084;BME280;13075;55.682;37.564;2022-08-03T03:58:05;99633.31;;;22.82;100.00
25084;BME280;13075;55.682;37.564;2022-08-03T04:00:31;99626.81;;;22.73;100.00
25084;BME280;13075;55.682;37.564;2022-08-03T04:02:56;99622.97;;;22.59;100.00
25084;BME280;13075;55.682;37.564;2022-08-03T04:05:22;99629.78;;;22.76;100.00
25084;BME280;13075;55.682;37.564;2022-08-03T04:08:10;99625.41;;;22.80;100.00
25084;BME280;13075;55.682;37.564;2022-08-03T04:11:18;99623.72;;;22.94;100.00
25084;BME280;13075;55.682;37.564;2022-08-03T04:13:54;99628.13;;;22.90;100.00
25084;BME280;13075;55.682;37.564;2022-08-03T04:16:26;99626.22;;;22.86;100.00
25084;BME280;13075;55.682;37.564;2022-08-03T04:19:00;99634.63;;;23.00;100.00
25084;BME280;13075;55.682;37.564;2022-08-03T04:21:27;99636.78;;;23.08;100.00
25084;BME280;13075;55.682;37.564;2022-08-03T04:23:58;99623.94;;;23.08;100.00
25084;BME280;13075;55.682;37.564;2022-08-03T04:26:26;99633.19;;;23.17;100.00
25084;BME280;13075;55.682;37.564;2022-08-03T04:28:54;99631.53;;;23.21;100.00
25084;BME280;13075;55.682;37.564;2022-08-03T04:31:21;99636.63;;;23.48;100.00
25084;BME280;13075;55.682;37.564;2022-08-03T04:33:49;99634.59;;;23.69;100.00
25084;BME280;13075;55.682;37.564;2022-08-03T04:36:20;99634.91;;;23.57;100.00
25084;BME280;13075;55.682;37.564;2022-08-03T04:41:19;99633.31;;;23.56;100.00
25084;BME280;13075;55.682;37.564;2022-08-03T04:43:48;99633.88;;;23.48;100.00
25084;BME280;13075;55.682;37.564;2022-08-03T04:46:16;99630.88;;;23.49;100.00
25084;BME280;13075;55.682;37.564;2022-08-03T04:48:43;99638.50;;;23.52;100.00
25084;BME280;13075;55.682;37.564;2022-08-03T04:51:11;99637.97;;;23.50;100.00
25084;BME280;13075;55.682;37.564;2022-08-03T04:53:37;99633.56;;;23.54;100.00
25084;BME280;13075;55.682;37.564;2022-08-03T04:56:06;99629.94;;;23.64;100.00
25084;BME280;13075;55.682;37.564;2022-08-03T04:58:32;99640.28;;;23.72;100.00
25084;BME280;13075;55.682;37.564;2022-08-03T05:00:58;99635.88;;;23.76;100.00
25084;BME280;13075;55.682;37.564;2022-08-03T05:03:23;99632.38;;;23.71;100.00
25084;BME280;13075;55.682;37.564;2022-08-03T05:05:50;99628.22;;;23.78;100.00
25084;BME280;13075;55.682;37.564;2022-08-03T05:08:15;99628.72;;;23.85;100.00
25084;BME280;13075;55.682;37.564;2022-08-03T05:10:41;99628.66;;;23.90;100.00
25084;BME280;13075;55.682;37.564;2022-08-03T05:13:07;99631.88;;;24.02;100.00
25084;BME280;13075;55.682;37.564;2022-08-03T05:15:36;99631.56;;;24.04;100.00
25084;BME280;13075;55.682;37.564;2022-08-03T05:18:01;99627.69;;;24.15;100.00
25084;BME280;13075;55.682;37.564;2022-08-03T05:20:27;99636.56;;;24.31;100.00
25084;BME280;13075;55.682;37.564;2022-08-03T05:22:53;99630.03;;;24.27;100.00
25084;BME280;13075;55.682;37.564;2022-08-03T05:25:18;99631.06;;;24.36;100.00
25084;BME280;13075;55.682;37.564;2022-08-03T05:27:44;99638.59;;;24.49;100.00
25084;BME280;13075;55.682;37.564;2022-08-03T05:30:10;99634.16;;;24.53;100.00
25084;BME280;13075;55.682;37.564;2022-08-03T05:32:36;99628.88;;;24.61;100.00
25084;BME280;13075;55.682;37.564;2022-08-03T05:35:01;99638.06;;;24.70;100.00
25084;BME280;13075;55.682;37.564;2022-08-03T05:37:27;99635.56;;;24.79;100.00
25084;BME280;13075;55.682;37.564;2022-08-03T05:39:53;99630.97;;;24.98;100.00
25084;BME280;13075;55.682;37.564;2022-08-03T05:42:18;99634.66;;;25.31;100.00
25084;BME280;13075;55.682;37.564;2022-08-03T05:44:44;99641.25;;;26.23;100.00
25084;BME280;13075;55.682;37.564;2022-08-03T05:47:09;99637.41;;;25.87;100.00
25084;BME280;13075;55.682;37.564;2022-08-03T05:49:35;99636.16;;;25.79;100.00
25084;BME280;13075;55.682;37.564;2022-08-03T05:52:01;99640.78;;;25.65;100.00
25084;BME280;13075;55.682;37.564;2022-08-03T05:54:27;99637.34;;;25.73;100.00
25084;BME280;13075;55.682;37.564;2022-08-03T05:56:52;99644.97;;;25.76;100.00
25084;BME280;13075;55.682;37.564;2022-08-03T05:59:18;99636.25;;;25.74;100.00
25084;BME280;13075;55.682;37.564;2022-08-03T06:01:44;99638.25;;;25.69;100.00
25084;BME280;13075;55.682;37.564;2022-08-03T06:04:09;99643.81;;;25.82;100.00
25084;BME280;13075;55.682;37.564;2022-08-03T06:06:35;99641.06;;;25.82;100.00
25084;BME280;13075;55.682;37.564;2022-08-03T06:09:00;99634.00;;;25.95;100.00
25084;BME280;13075;55.682;37.564;2022-08-03T06:11:26;99639.31;;;26.05;100.00
25084;BME280;13075;55.682;37.564;2022-08-03T06:13:52;99632.59;;;26.16;100.00
25084;BME280;13075;55.682;37.564;2022-08-03T06:16:17;99641.66;;;26.30;100.00
25084;BME280;13075;55.682;37.564;2022-08-03T06:18:43;99634.66;;;26.38;100.00
25084;BME280;13075;55.682;37.564;2022-08-03T06:21:08;99635.63;;;26.47;100.00
25084;BME280;13075;55.682;37.564;2022-08-03T06:23:34;99641.75;;;26.57;100.00
25084;BME280;13075;55.682;37.564;2022-08-03T06:26:00;99633.66;;;26.80;100.00
25084;BME280;13075;55.682;37.564;2022-08-03T06:28:26;99646.47;;;27.11;100.00
25084;BME280;13075;55.682;37.564;2022-08-03T06:30:52;99646.16;;;27.27;100.00
25084;BME280;13075;55.682;37.564;2022-08-03T06:33:17;99642.63;;;27.75;100.00
25084;BME280;13075;55.682;37.564;2022-08-03T06:35:43;99645.13;;;28.52;97.53
25084;BME280;13075;55.682;37.564;2022-08-03T06:38:08;99641.66;;;28.99;84.71
25084;BME280;13075;55.682;37.564;2022-08-03T06:40:35;99634.72;;;29.11;86.57
25084;BME280;13075;55.682;37.564;2022-08-03T06:43:04;99640.94;;;30.70;70.86
25084;BME280;13075;55.682;37.564;2022-08-03T06:45:31;99641.44;;;34.71;48.67
25084;BME280;13075;55.682;37.564;2022-08-03T06:48:04;99622.44;;;37.75;36.31
25084;BME280;13075;55.682;37.564;2022-08-03T06:50:31;99633.72;;;38.85;37.33
25084;BME280;13075;55.682;37.564;2022-08-03T06:52:58;99634.59;;;39.47;34.05
25084;BME280;13075;55.682;37.564;2022-08-03T06:55:23;99623.06;;;40.81;32.15
25084;BME280;13075;55.682;37.564;2022-08-03T06:57:49;99627.88;;;41.58;31.35
25084;BME280;13075;55.682;37.564;2022-08-03T07:00:15;99629.56;;;42.35;29.64
25084;BME280;13075;55.682;37.564;2022-08-03T07:02:41;99629.56;;;42.90;28.77
25084;BME280;13075;55.682;37.564;2022-08-03T07:05:07;99635.47;;;44.52;26.42
25084;BME280;13075;55.682;37.564;2022-08-03T07:07:33;99623.81;;;45.66;25.97
25084;BME280;13075;55.682;37.564;2022-08-03T07:09:59;99627.84;;;47.24;24.18
25084;BME280;13075;55.682;37.564;2022-08-03T07:12:26;99630.47;;;46.67;23.60
25084;BME280;13075;55.682;37.564;2022-08-03T07:14:53;99618.22;;;48.46;22.04
25084;BME280;13075;55.682;37.564;2022-08-03T07:17:18;99624.06;;;49.27;21.33
25084;BME280;13075;55.682;37.564;2022-08-03T07:19:44;99623.69;;;49.25;20.64
25084;BME280;13075;55.682;37.564;2022-08-03T07:22:10;99631.47;;;49.12;20.42
25084;BME280;13075;55.682;37.564;2022-08-03T07:24:35;99630.38;;;50.30;19.86
25084;BME280;13075;55.682;37.564;2022-08-03T07:27:01;99620.56;;;46.43;22.16
25084;BME280;13075;55.682;37.564;2022-08-03T07:29:27;99621.41;;;47.81;21.31
25084;BME280;13075;55.682;37.564;2022-08-03T07:31:53;99613.59;;;47.57;21.55
25084;BME280;13075;55.682;37.564;2022-08-03T07:34:18;99620.03;;;48.90;20.27
25084;BME280;13075;55.682;37.564;2022-08-03T07:36:44;99620.47;;;49.36;19.89
25084;BME280;13075;55.682;37.564;2022-08-03T07:39:10;99617.84;;;49.97;19.13
25084;BME280;13075;55.682;37.564;2022-08-03T07:41:35;99629.59;;;50.88;18.71
25084;BME280;13075;55.682;37.564;2022-08-03T07:44:01;99614.16;;;51.80;17.78
25084;BME280;13075;55.682;37.564;2022-08-03T07:46:27;99618.69;;;52.64;17.10
25084;BME280;13075;55.682;37.564;2022-08-03T07:48:53;99618.94;;;53.23;16.70
25084;BME280;13075;55.682;37.564;2022-08-03T07:51:18;99627.09;;;53.15;16.21
25084;BME280;13075;55.682;37.564;2022-08-03T07:53:44;99631.22;;;50.18;17.84
25084;BME280;13075;55.682;37.564;2022-08-03T07:56:09;99627.44;;;50.92;17.58
25084;BME280;13075;55.682;37.564;2022-08-03T07:58:35;99627.56;;;50.88;18.20
25084;BME280;13075;55.682;37.564;2022-08-03T08:01:01;99628.34;;;52.25;16.97
25084;BME280;13075;55.682;37.564;2022-08-03T08:03:27;99626.72;;;50.08;17.96
25084;BME280;13075;55.682;37.564;2022-08-03T08:05:52;99629.06;;;49.23;18.17
25084;BME280;13075;55.682;37.564;2022-08-03T08:08:19;99636.97;;;51.89;16.72
25084;BME280;13075;55.682;37.564;2022-08-03T08:10:45;99634.16;;;51.80;16.67
25084;BME280;13075;55.682;37.564;2022-08-03T08:13:11;99627.41;;;52.61;16.37
25084;BME280;13075;55.682;37.564;2022-08-03T08:15:36;99626.56;;;49.81;17.65
25084;BME280;13075;55.682;37.564;2022-08-03T08:18:02;99627.59;;;43.35;22.01
25084;BME280;13075;55.682;37.564;2022-08-03T08:20:30;99623.88;;;41.27;24.48
25084;BME280;13075;55.682;37.564;2022-08-03T08:22:58;99635.91;;;37.66;28.17
25084;BME280;13075;55.682;37.564;2022-08-03T08:25:24;99634.19;;;36.60;29.57
25084;BME280;13075;55.682;37.564;2022-08-03T08:27:50;99633.25;;;36.98;29.32
25084;BME280;13075;55.682;37.564;2022-08-03T08:30:18;99635.75;;;37.85;28.45
25084;BME280;13075;55.682;37.564;2022-08-03T08:32:44;99622.69;;;41.07;25.48
25084;BME280;13075;55.682;37.564;2022-08-03T08:35:11;99637.75;;;37.55;28.70
25084;BME280;13075;55.682;37.564;2022-08-03T08:37:37;99639.91;;;35.71;30.97
25084;BME280;13075;55.682;37.564;2022-08-03T08:40:04;99628.09;;;34.49;33.69
25084;BME280;13075;55.682;37.564;2022-08-03T08:42:36;99621.34;;;34.19;34.82
25084;BME280;13075;55.682;37.564;2022-08-03T08:45:03;99629.56;;;34.43;35.41
25084;BME280;13075;55.682;37.564;2022-08-03T08:47:36;99630.22;;;33.45;37.29
25084;BME280;13075;55.682;37.564;2022-08-03T08:50:02;99634.09;;;32.83;38.47
25084;BME280;13075;55.682;37.564;2022-08-03T08:52:29;99631.69;;;32.94;38.77
25084;BME280;13075;55.682;37.564;2022-08-03T08:55:00;99635.50;;;32.44;40.03
25084;BME280;13075;55.682;37.564;2022-08-03T08:57:39;99630.91;;;33.17;39.82
25084;BME280;13075;55.682;37.564;2022-08-03T09:00:08;99632.50;;;33.43;38.42
25084;BME280;13075;55.682;37.564;2022-08-03T09:02:35;99630.31;;;33.36;38.37
25084;BME280;13075;55.682;37.564;2022-08-03T09:05:02;99634.47;;;33.30;38.96
25084;BME280;13075;55.682;37.564;2022-08-03T09:07:28;99636.25;;;33.10;38.41
25084;BME280;13075;55.682;37.564;2022-08-03T09:09:54;99640.94;;;32.98;38.56
25084;BME280;13075;55.682;37.564;2022-08-03T09:12:20;99632.41;;;32.46;40.83
25084;BME280;13075;55.682;37.564;2022-08-03T09:14:46;99642.34;;;33.28;39.25
25084;BME280;13075;55.682;37.564;2022-08-03T09:17:12;99642.03;;;33.81;38.16
25084;BME280;13075;55.682;37.564;2022-08-03T09:19:38;99638.28;;;33.38;37.99
25084;BME280;13075;55.682;37.564;2022-08-03T09:22:16;99636.25;;;33.10;38.56
25084;BME280;13075;55.682;37.564;2022-08-03T09:25:05;99644.06;;;32.96;39.60
25084;BME280;13075;55.682;37.564;2022-08-03T09:27:43;99643.25;;;32.84;39.82
25084;BME280;13075;55.682;37.564;2022-08-03T09:30:16;99648.88;;;32.63;41.88
25084;BME280;13075;55.682;37.564;2022-08-03T09:32:42;99649.53;;;32.60;41.20
25084;BME280;13075;55.682;37.564;2022-08-03T09:35:12;99646.13;;;31.89;43.07
25084;BME280;13075;55.682;37.564;2022-08-03T09:37:38;99648.09;;;31.38;44.67
25084;BME280;13075;55.682;37.564;2022-08-03T09:40:05;99653.34;;;31.02;46.79
25084;BME280;13075;55.682;37.564;2022-08-03T09:42:31;99657.69;;;30.57;47.92
25084;BME280;13075;55.682;37.564;2022-08-03T09:44:59;99655.16;;;30.26;49.06
25084;BME280;13075;55.682;37.564;2022-08-03T09:49:58;99642.03;;;29.80;50.40
25084;BME280;13075;55.682;37.564;2022-08-03T09:52:33;99647.50;;;30.23;51.73
25084;BME280;13075;55.682;37.564;2022-08-03T09:55:00;99650.31;;;31.24;46.25
25084;BME280;13075;55.682;37.564;2022-08-03T09:57:27;99643.53;;;31.42;46.49
25084;BME280;13075;55.682;37.564;2022-08-03T10:02:39;99643.69;;;32.74;42.15
25084;BME280;13075;55.682;37.564;2022-08-03T10:05:06;99642.22;;;33.24;39.49
25084;BME280;13075;55.682;37.564;2022-08-03T10:07:48;99629.97;;;32.77;40.10
25084;BME280;13075;55.682;37.564;2022-08-03T10:10:15;99644.63;;;32.33;41.08
25084;BME280;13075;55.682;37.564;2022-08-03T10:12:43;99639.38;;;31.57;43.30
25084;BME280;13075;55.682;37.564;2022-08-03T10:15:09;99646.69;;;31.32;44.53
25084;BME280;13075;55.682;37.564;2022-08-03T10:17:36;99652.44;;;31.19;46.43
25084;BME280;13075;55.682;37.564;2022-08-03T10:20:04;99646.38;;;30.96;50.07
25084;BME280;13075;55.682;37.564;2022-08-03T10:22:35;99647.59;;;30.69;51.91
25084;BME280;13075;55.682;37.564;2022-08-03T10:25:19;99649.25;;;30.53;52.81
25084;BME280;13075;55.682;37.564;2022-08-03T10:27:46;99657.53;;;30.53;49.84
25084;BME280;13075;55.682;37.564;2022-08-03T10:30:14;99657.69;;;30.57;48.92
25084;BME280;13075;55.682;37.564;2022-08-03T10:32:48;99655.09;;;30.60;48.91
25084;BME280;13075;55.682;37.564;2022-08-03T10:35:19;99642.13;;;30.44;50.24
25084;BME280;13075;55.682;37.564;2022-08-03T10:37:55;99647.38;;;30.92;47.73
25084;BME280;13075;55.682;37.564;2022-08-03T10:40:23;99643.72;;;31.08;47.06
25084;BME280;13075;55.682;37.564;2022-08-03T10:42:54;99649.16;;;30.88;48.83
25084;BME280;13075;55.682;37.564;2022-08-03T10:45:25;99654.50;;;31.01;49.29
25084;BME280;13075;55.682;37.564;2022-08-03T10:47:52;99653.44;;;31.14;46.53
25084;BME280;13075;55.682;37.564;2022-08-03T10:50:22;99648.88;;;31.48;46.93
25084;BME280;13075;55.682;37.564;2022-08-03T10:52:57;99654.03;;;31.58;46.15
25084;BME280;13075;55.682;37.564;2022-08-03T10:55:44;99661.03;;;31.55;44.93
25084;BME280;13075;55.682;37.564;2022-08-03T11:01:04;99652.34;;;31.65;46.69
25084;BME280;13075;55.682;37.564;2022-08-03T11:03:30;99655.66;;;31.79;47.13
25084;BME280;13075;55.682;37.564;2022-08-03T11:06:17;99653.81;;;31.83;44.59
25084;BME280;13075;55.682;37.564;2022-08-03T11:08:44;99659.72;;;31.23;46.35
25084;BME280;13075;55.682;37.564;2022-08-03T11:14:20;99665.50;;;30.55;49.95
25084;BME280;13075;55.682;37.564;2022-08-03T11:19:17;99654.53;;;29.95;55.30
25084;BME280;13075;55.682;37.564;2022-08-03T11:27:23;99660.34;;;30.02;54.53
25084;BME280;13075;55.682;37.564;2022-08-03T11:30:10;99659.53;;;30.10;50.51
25084;BME280;13075;55.682;37.564;2022-08-03T11:35:13;99659.66;;;30.56;47.90
25084;BME280;13075;55.682;37.564;2022-08-03T11:48:40;99658.34;;;31.09;44.67
25084;BME280;13075;55.682;37.564;2022-08-03T11:51:27;99654.47;;;31.10;46.14
25084;BME280;13075;55.682;37.564;2022-08-03T11:53:58;99656.97;;;31.23;47.38
25084;BME280;13075;55.682;37.564;2022-08-03T11:56:25;99656.06;;;30.64;47.46
25084;BME280;13075;55.682;37.564;2022-08-03T11:58:55;99657.16;;;30.80;47.07
25084;BME280;13075;55.682;37.564;2022-08-03T12:01:22;99656.25;;;31.06;48.28
25084;BME280;13075;55.682;37.564;2022-08-03T12:03:49;99658.16;;;31.14;47.98
25084;BME280;13075;55.682;37.564;2022-08-03T12:06:16;99647.53;;;31.24;46.13
25084;BME280;13075;55.682;37.564;2022-08-03T12:08:43;99644.63;;;31.21;47.24
25084;BME280;13075;55.682;37.564;2022-08-03T12:11:11;99647.28;;;31.09;48.63
25084;BME280;13075;55.682;37.564;2022-08-03T12:13:43;99639.25;;;30.87;48.14
25084;BME280;13075;55.682;37.564;2022-08-03T12:16:10;99645.25;;;30.89;48.77
25084;BME280;13075;55.682;37.564;2022-08-03T12:18:41;99644.06;;;31.07;49.39
25084;BME280;13075;55.682;37.564;2022-08-03T12:21:09;99640.63;;;31.10;52.06
25084;BME280;13075;55.682;37.564;2022-08-03T12:23:35;99644.31;;;31.22;51.22
25084;BME280;13075;55.682;37.564;2022-08-03T12:26:08;99635.19;;;31.22;50.71
25084;BME280;13075;55.682;37.564;2022-08-03T12:28:34;99652.28;;;31.15;51.31
25084;BME280;13075;55.682;37.564;2022-08-03T12:31:03;99643.59;;;31.05;49.22
25084;BME280;13075;55.682;37.564;2022-08-03T12:33:31;99640.84;;;30.96;50.40
25084;BME280;13075;55.682;37.564;2022-08-03T12:36:05;99638.25;;;31.00;48.07
25084;BME280;13075;55.682;37.564;2022-08-03T12:38:33;99648.03;;;30.97;50.09
25084;BME280;13075;55.682;37.564;2022-08-03T12:41:04;99639.34;;;31.07;50.83
25084;BME280;13075;55.682;37.564;2022-08-03T12:43:30;99641.66;;;30.97;49.32
25084;BME280;13075;55.682;37.564;2022-08-03T12:46:14;99643.59;;;31.05;53.03
25084;BME280;13075;55.682;37.564;2022-08-03T12:51:25;99645.38;;;30.54;52.80
25084;BME280;13075;55.682;37.564;2022-08-03T12:53:53;99644.78;;;30.40;54.65
25084;BME280;13075;55.682;37.564;2022-08-03T12:56:19;99645.56;;;30.15;56.73
25084;BME280;13075;55.682;37.564;2022-08-03T12:58:45;99642.03;;;30.06;55.52
25084;BME280;13075;55.682;37.564;2022-08-03T13:01:12;99650.28;;;29.97;55.08
25084;BME280;13075;55.682;37.564;2022-08-03T13:03:47;99652.72;;;29.82;60.92
25084;BME280;13075;55.682;37.564;2022-08-03T13:06:15;99648.78;;;29.65;65.58
25084;BME280;13075;55.682;37.564;2022-08-03T13:08:42;99653.31;;;29.53;61.06
25084;BME280;13075;55.682;37.564;2022-08-03T13:11:22;99655.44;;;29.47;58.60
25084;BME280;13075;55.682;37.564;2022-08-03T13:13:49;99656.25;;;29.39;58.77
25084;BME280;13075;55.682;37.564;2022-08-03T13:16:15;99656.34;;;29.26;58.20
25084;BME280;13075;55.682;37.564;2022-08-03T13:18:40;99653.22;;;29.19;59.60
25084;BME280;13075;55.682;37.564;2022-08-03T13:21:06;99660.34;;;29.20;64.96
25084;BME280;13075;55.682;37.564;2022-08-03T13:23:32;99656.63;;;29.16;62.94
25084;BME280;13075;55.682;37.564;2022-08-03T13:25:58;99651.25;;;29.11;63.89
25084;BME280;13075;55.682;37.564;2022-08-03T13:28:24;99652.88;;;29.12;64.36
25084;BME280;13075;55.682;37.564;2022-08-03T13:30:49;99648.31;;;29.07;67.54
25084;BME280;13075;55.682;37.564;2022-08-03T13:33:15;99647.09;;;29.22;67.31
25084;BME280;13075;55.682;37.564;2022-08-03T13:35:41;99658.28;;;29.25;66.18
25084;BME280;13075;55.682;37.564;2022-08-03T13:38:06;99655.38;;;29.30;67.65
25084;BME280;13075;55.682;37.564;2022-08-03T13:40:32;99652.59;;;29.22;70.49
25084;BME280;13075;55.682;37.564;2022-08-03T13:42:59;99646.97;;;29.27;74.12